sensor_id;sensor_type;location;lat;lon;timestamp;pressure;altitude;pressure_sealevel;temperature;humidity
9746;BME280;4912;50.836;12.958;2023-09-12T00:02:26;97500.84;;;21.54;64.10
9746;BME280;4912;50.836;12.958;2023-09-12T00:04:56;97508.13;;;21.49;64.13
9746;BME280;4912;50.836;12.958;2023-09-12T00:07:30;97506.19;;;21.44;64.41
9746;BME280;4912;50.836;12.958;2023-09-12T00:10:01;97511.63;;;21.42;64.49
9746;BME280;4912;50.836;12.958;2023-09-12T00:12:31;97511.09;;;21.44;64.64
9746;BME280;4912;50.836;12.958;2023-09-12T00:15:02;97507.66;;;21.38;64.69
9746;BME280;4912;50.836;12.958;2023-09-12T00:17:33;97513.81;;;21.36;65.48
9746;BME280;4912;50.836;12.958;2023-09-12T00:20:05;97510.59;;;21.32;65.46
9746;BME280;4912;50.836;12.958;2023-09-12T00:22:39;97508.53;;;21.33;65.34
9746;BME280;4912;50.836;12.958;2023-09-12T00:25:10;97511.47;;;21.27;65.42
9746;BME280;4912;50.836;12.958;2023-09-12T00:27:41;97512.78;;;21.26;65.86
9746;BME280;4912;50.836;12.958;2023-09-12T00:30:14;97508.78;;;21.21;65.48
9746;BME280;4912;50.836;12.958;2023-09-12T00:32:46;97500.91;;;21.20;65.88
9746;BME280;4912;50.836;12.958;2023-09-12T00:35:17;97500.69;;;21.18;65.95
9746;BME280;4912;50.836;12.958;2023-09-12T00:37:50;97509.13;;;21.18;66.19
9746;BME280;4912;50.836;12.958;2023-09-12T00:40:20;97502.84;;;21.12;66.61
9746;BME280;4912;50.836;12.958;2023-09-12T00:42:51;97494.97;;;21.10;66.62
9746;BME280;4912;50.836;12.958;2023-09-12T00:45:22;97495.31;;;21.07;67.21
9746;BME280;4912;50.836;12.958;2023-09-12T00:47:53;97500.53;;;21.03;67.28
9746;BME280;4912;50.836;12.958;2023-09-12T00:50:25;97499.75;;;21.02;67.16
9746;BME280;4912;50.836;12.958;2023-09-12T00:52:58;97493.16;;;21.00;67.37
9746;BME280;4912;50.836;12.958;2023-09-12T00:55:31;97489.38;;;20.97;67.38
9746;BME280;4912;50.836;12.958;2023-09-12T00:58:03;97492.00;;;20.95;67.32
9746;BME280;4912;50.836;12.958;2023-09-12T01:00:35;97496.88;;;20.95;67.92
9746;BME280;4912;50.836;12.958;2023-09-12T01:03:06;97494.72;;;20.88;68.19
9746;BME280;4912;50.836;12.958;2023-09-12T01:05:37;97494.31;;;20.83;68.17
9746;BME280;4912;50.836;12.958;2023-09-12T01:08:11;97496.34;;;20.83;68.19
9746;BME280;4912;50.836;12.958;2023-09-12T01:10:42;97500.47;;;20.82;68.15
9746;BME280;4912;50.836;12.958;2023-09-12T01:13:14;97503.28;;;20.82;68.76
9746;BME280;4912;50.836;12.958;2023-09-12T01:15:44;97500.81;;;20.78;68.47
9746;BME280;4912;50.836;12.958;2023-09-12T01:18:15;97508.69;;;20.80;68.81
9746;BME280;4912;50.836;12.958;2023-09-12T01:20:48;97507.31;;;20.73;69.26
9746;BME280;4912;50.836;12.958;2023-09-12T01:23:47;97508.94;;;20.69;69.83
9746;BME280;4912;50.836;12.958;2023-09-12T01:26:30;97506.47;;;20.65;69.74
9746;BME280;4912;50.836;12.958;2023-09-12T01:29:15;97516.19;;;20.64;70.02
9746;BME280;4912;50.836;12.958;2023-09-12T01:31:47;97513.16;;;20.62;69.84
9746;BME280;4912;50.836;12.958;2023-09-12T01:34:20;97504.31;;;20.58;70.17
9746;BME280;4912;50.836;12.958;2023-09-12T01:36:50;97513.09;;;20.55;70.26
9746;BME280;4912;50.836;12.958;2023-09-12T01:39:21;97510.81;;;20.53;69.92
9746;BME280;4912;50.836;12.958;2023-09-12T01:41:53;97505.72;;;20.52;69.96
9746;BME280;4912;50.836;12.958;2023-09-12T01:44:28;97506.06;;;20.48;70.31
9746;BME280;4912;50.836;12.958;2023-09-12T01:47:03;97504.13;;;20.43;70.64
9746;BME280;4912;50.836;12.958;2023-09-12T01:49:35;97508.41;;;20.44;70.69
9746;BME280;4912;50.836;12.958;2023-09-12T01:52:08;97508.66;;;20.46;70.46
9746;BME280;4912;50.836;12.958;2023-09-12T01:54:40;97509.75;;;20.43;70.49
9746;BME280;4912;50.836;12.958;2023-09-12T01:57:12;97508.00;;;20.40;70.82
9746;BME280;4912;50.836;12.958;2023-09-12T01:59:46;97514.28;;;20.33;70.82
9746;BME280;4912;50.836;12.958;2023-09-12T02:02:18;97505.41;;;20.29;70.71
9746;BME280;4912;50.836;12.958;2023-09-12T02:04:54;97512.31;;;20.28;70.87
9746;BME280;4912;50.836;12.958;2023-09-12T02:07:33;97509.31;;;20.26;70.90
9746;BME280;4912;50.836;12.958;2023-09-12T02:10:08;97512.84;;;20.26;70.89
9746;BME280;4912;50.836;12.958;2023-09-12T02:12:40;97507.78;;;20.25;71.09
9746;BME280;4912;50.836;12.958;2023-09-12T02:15:13;97511.13;;;20.23;71.38
9746;BME280;4912;50.836;12.958;2023-09-12T02:17:44;97508.84;;;20.22;71.30
9746;BME280;4912;50.836;12.958;2023-09-12T02:20:18;97512.22;;;20.20;71.24
9746;BME280;4912;50.836;12.958;2023-09-12T02:22:49;97510.13;;;20.21;71.30
9746;BME280;4912;50.836;12.958;2023-09-12T02:25:19;97511.78;;;20.16;70.98
9746;BME280;4912;50.836;12.958;2023-09-12T02:27:50;97505.31;;;20.08;71.52
9746;BME280;4912;50.836;12.958;2023-09-12T02:30:23;97510.03;;;20.00;71.63
9746;BME280;4912;50.836;12.958;2023-09-12T02:32:53;97508.84;;;19.95;72.16
9746;BME280;4912;50.836;12.958;2023-09-12T02:35:24;97513.72;;;19.95;72.19
9746;BME280;4912;50.836;12.958;2023-09-12T02:37:55;97511.44;;;19.93;72.78
9746;BME280;4912;50.836;12.958;2023-09-12T02:40:25;97509.16;;;19.92;73.02
9746;BME280;4912;50.836;12.958;2023-09-12T02:42:55;97506.34;;;19.92;72.85
9746;BME280;4912;50.836;12.958;2023-09-12T02:45:28;97502.25;;;19.93;72.79
9746;BME280;4912;50.836;12.958;2023-09-12T02:47:59;97500.97;;;19.94;72.44
9746;BME280;4912;50.836;12.958;2023-09-12T02:50:29;97503.78;;;19.94;72.66
9746;BME280;4912;50.836;12.958;2023-09-12T02:52:59;97501.72;;;19.94;72.80
9746;BME280;4912;50.836;12.958;2023-09-12T02:55:30;97504.75;;;19.96;72.35
9746;BME280;4912;50.836;12.958;2023-09-12T02:58:00;97494.59;;;19.93;72.44
9746;BME280;4912;50.836;12.958;2023-09-12T03:00:37;97498.25;;;19.88;72.73
9746;BME280;4912;50.836;12.958;2023-09-12T03:03:08;97483.34;;;19.80;73.05
9746;BME280;4912;50.836;12.958;2023-09-12T03:05:38;97486.91;;;19.81;73.32
9746;BME280;4912;50.836;12.958;2023-09-12T03:08:08;97487.44;;;19.79;73.34
9746;BME280;4912;50.836;12.958;2023-09-12T03:10:39;97479.34;;;19.76;73.28
9746;BME280;4912;50.836;12.958;2023-09-12T03:13:11;97484.19;;;19.75;73.86
9746;BME280;4912;50.836;12.958;2023-09-12T03:15:44;97480.09;;;19.76;73.50
9746;BME280;4912;50.836;12.958;2023-09-12T03:18:15;97481.09;;;19.79;73.53
9746;BME280;4912;50.836;12.958;2023-09-12T03:20:45;97473.63;;;19.81;73.33
9746;BME280;4912;50.836;12.958;2023-09-12T03:23:16;97469.53;;;19.82;73.19
9746;BME280;4912;50.836;12.958;2023-09-12T03:25:46;97465.97;;;19.82;73.66
9746;BME280;4912;50.836;12.958;2023-09-12T03:28:16;97471.56;;;19.82;73.71
9746;BME280;4912;50.836;12.958;2023-09-12T03:30:50;97476.22;;;19.79;73.96
9746;BME280;4912;50.836;12.958;2023-09-12T03:33:20;97477.72;;;19.80;73.85
9746;BME280;4912;50.836;12.958;2023-09-12T03:35:51;97483.91;;;19.79;73.88
9746;BME280;4912;50.836;12.958;2023-09-12T03:38:21;97477.53;;;19.78;73.79
9746;BME280;4912;50.836;12.958;2023-09-12T03:40:51;97481.81;;;19.79;73.59
9746;BME280;4912;50.836;12.958;2023-09-12T03:43:22;97480.34;;;19.78;73.67
9746;BME280;4912;50.836;12.958;2023-09-12T03:45:55;97484.19;;;19.75;73.68
9746;BME280;4912;50.836;12.958;2023-09-12T03:48:25;97476.63;;;19.70;73.82
9746;BME280;4912;50.836;12.958;2023-09-12T03:50:57;97482.59;;;19.67;73.88
9746;BME280;4912;50.836;12.958;2023-09-12T03:53:28;97486.69;;;19.66;73.89
9746;BME280;4912;50.836;12.958;2023-09-12T03:55:58;97483.41;;;19.61;74.40
9746;BME280;4912;50.836;12.958;2023-09-12T03:58:29;97490.78;;;19.65;74.22
9746;BME280;4912;50.836;12.958;2023-09-12T04:01:02;97481.06;;;19.66;74.57
9746;BME280;4912;50.836;12.958;2023-09-12T04:03:33;97481.06;;;19.66;74.57
9746;BME280;4912;50.836;12.958;2023-09-12T04:06:03;97478.03;;;19.63;74.46
9746;BME280;4912;50.836;12.958;2023-09-12T04:08:33;97486.03;;;19.59;74.81
9746;BME280;4912;50.836;12.958;2023-09-12T04:11:04;97485.50;;;19.61;74.56
9746;BME280;4912;50.836;12.958;2023-09-12T04:13:34;97482.69;;;19.61;74.50
9746;BME280;4912;50.836;12.958;2023-09-12T04:16:07;97482.47;;;19.59;74.61
9746;BME280;4912;50.836;12.958;2023-09-12T04:18:38;97482.22;;;19.57;75.01
9746;BME280;4912;50.836;12.958;2023-09-12T04:21:09;97477.38;;;19.57;75.21
9746;BME280;4912;50.836;12.958;2023-09-12T04:23:40;97480.19;;;19.57;75.17
9746;BME280;4912;50.836;12.958;2023-09-12T04:26:10;97482.78;;;19.55;75.24
9746;BME280;4912;50.836;12.958;2023-09-12T04:28:46;97481.47;;;19.56;75.15
9746;BME280;4912;50.836;12.958;2023-09-12T04:31:19;97484.84;;;19.55;74.87
9746;BME280;4912;50.836;12.958;2023-09-12T04:33:50;97483.09;;;19.52;75.05
9746;BME280;4912;50.836;12.958;2023-09-12T04:36:21;97483.41;;;19.48;75.21
9746;BME280;4912;50.836;12.958;2023-09-12T04:38:52;97483.69;;;19.45;75.21
9746;BME280;4912;50.836;12.958;2023-09-12T04:41:22;97483.19;;;19.46;75.04
9746;BME280;4912;50.836;12.958;2023-09-12T04:43:52;97478.34;;;19.47;74.96
9746;BME280;4912;50.836;12.958;2023-09-12T04:46:27;97476.28;;;19.47;74.95
9746;BME280;4912;50.836;12.958;2023-09-12T04:48:57;97475.53;;;19.47;74.63
9746;BME280;4912;50.836;12.958;2023-09-12T04:51:28;97469.91;;;19.47;74.57
9746;BME280;4912;50.836;12.958;2023-09-12T04:53:58;97481.56;;;19.51;74.70
9746;BME280;4912;50.836;12.958;2023-09-12T04:56:29;97470.16;;;19.49;74.86
9746;BME280;4912;50.836;12.958;2023-09-12T04:59:02;97466.78;;;19.50;74.86
9746;BME280;4912;50.836;12.958;2023-09-12T05:01:38;97467.53;;;19.51;75.20
9746;BME280;4912;50.836;12.958;2023-09-12T05:04:10;97471.09;;;19.51;75.30
9746;BME280;4912;50.836;12.958;2023-09-12T05:06:41;97476.94;;;19.53;75.14
9746;BME280;4912;50.836;12.958;2023-09-12T05:09:17;97476.19;;;19.53;74.92
9746;BME280;4912;50.836;12.958;2023-09-12T05:11:54;97485.78;;;19.57;74.80
9746;BME280;4912;50.836;12.958;2023-09-12T05:14:24;97484.72;;;19.60;74.89
9746;BME280;4912;50.836;12.958;2023-09-12T05:16:58;97489.50;;;19.66;74.83
9746;BME280;4912;50.836;12.958;2023-09-12T05:19:29;97487.13;;;19.70;74.57
9746;BME280;4912;50.836;12.958;2023-09-12T05:22:05;97485.72;;;19.76;74.25
9746;BME280;4912;50.836;12.958;2023-09-12T05:24:35;97492.75;;;19.83;74.01
9746;BME280;4912;50.836;12.958;2023-09-12T05:27:08;97489.31;;;19.90;74.03
9746;BME280;4912;50.836;12.958;2023-09-12T05:29:39;97492.09;;;20.03;73.99
9746;BME280;4912;50.836;12.958;2023-09-12T05:32:12;97500.53;;;20.16;74.35
9746;BME280;4912;50.836;12.958;2023-09-12T05:34:44;97495.66;;;20.30;74.28
9746;BME280;4912;50.836;12.958;2023-09-12T05:37:29;97492.31;;;20.44;73.85
9746;BME280;4912;50.836;12.958;2023-09-12T05:39:59;97496.75;;;20.53;73.66
9746;BME280;4912;50.836;12.958;2023-09-12T05:42:30;97501.72;;;20.60;73.12
9746;BME280;4912;50.836;12.958;2023-09-12T05:45:01;97509.38;;;20.73;72.77
9746;BME280;4912;50.836;12.958;2023-09-12T05:47:34;97508.16;;;20.81;70.39
9746;BME280;4912;50.836;12.958;2023-09-12T05:50:08;97502.28;;;20.93;69.98
9746;BME280;4912;50.836;12.958;2023-09-12T05:52:38;97506.81;;;20.96;69.88
9746;BME280;4912;50.836;12.958;2023-09-12T05:55:12;97507.00;;;20.98;71.13
9746;BME280;4912;50.836;12.958;2023-09-12T05:57:45;97514.47;;;21.08;71.07
9746;BME280;4912;50.836;12.958;2023-09-12T06:00:20;97518.00;;;21.22;70.46
9746;BME280;4912;50.836;12.958;2023-09-12T06:02:53;97521.09;;;21.32;69.35
9746;BME280;4912;50.836;12.958;2023-09-12T06:05:24;97521.72;;;21.38;69.34
9746;BME280;4912;50.836;12.958;2023-09-12T06:07:54;97529.00;;;21.54;69.06
9746;BME280;4912;50.836;12.958;2023-09-12T06:13:16;97526.44;;;21.84;68.55
9746;BME280;4912;50.836;12.958;2023-09-12T06:15:46;97533.31;;;21.96;68.81
9746;BME280;4912;50.836;12.958;2023-09-12T06:18:19;97521.78;;;22.15;67.64
9746;BME280;4912;50.836;12.958;2023-09-12T06:20:51;97518.16;;;22.35;66.55
9746;BME280;4912;50.836;12.958;2023-09-12T06:23:21;97527.44;;;22.51;65.61
9746;BME280;4912;50.836;12.958;2023-09-12T06:25:52;97527.94;;;22.70;65.83
9746;BME280;4912;50.836;12.958;2023-09-12T06:28:25;97520.34;;;22.94;66.12
9746;BME280;4912;50.836;12.958;2023-09-12T06:30:57;97524.19;;;23.19;64.78
9746;BME280;4912;50.836;12.958;2023-09-12T06:33:30;97531.75;;;23.32;62.16
9746;BME280;4912;50.836;12.958;2023-09-12T06:36:00;97524.63;;;23.53;60.41
9746;BME280;4912;50.836;12.958;2023-09-12T06:38:32;97522.03;;;23.78;59.25
9746;BME280;4912;50.836;12.958;2023-09-12T06:41:02;97518.63;;;23.95;57.93
9746;BME280;4912;50.836;12.958;2023-09-12T06:43:33;97527.25;;;24.04;58.45
9746;BME280;4912;50.836;12.958;2023-09-12T06:46:03;97528.41;;;24.09;58.67
9746;BME280;4912;50.836;12.958;2023-09-12T06:48:36;97524.63;;;24.29;58.40
9746;BME280;4912;50.836;12.958;2023-09-12T06:51:08;97524.00;;;24.46;57.97
9746;BME280;4912;50.836;12.958;2023-09-12T06:53:43;97524.16;;;24.63;57.61
9746;BME280;4912;50.836;12.958;2023-09-12T06:56:15;97531.84;;;24.78;58.04
9746;BME280;4912;50.836;12.958;2023-09-12T06:58:45;97533.81;;;25.08;57.18
9746;BME280;4912;50.836;12.958;2023-09-12T07:01:16;97525.06;;;25.21;55.86
9746;BME280;4912;50.836;12.958;2023-09-12T07:03:49;97536.28;;;25.36;54.65
9746;BME280;4912;50.836;12.958;2023-09-12T07:06:21;97542.22;;;25.55;54.09
9746;BME280;4912;50.836;12.958;2023-09-12T07:08:52;97533.00;;;25.80;53.76
9746;BME280;4912;50.836;12.958;2023-09-12T07:11:22;97530.97;;;25.97;53.60
9746;BME280;4912;50.836;12.958;2023-09-12T07:13:52;97530.06;;;26.12;52.96
9746;BME280;4912;50.836;12.958;2023-09-12T07:16:29;97524.19;;;26.35;52.23
9746;BME280;4912;50.836;12.958;2023-09-12T07:19:13;97530.22;;;26.56;51.40
9746;BME280;4912;50.836;12.958;2023-09-12T07:21:50;97526.78;;;26.75;51.00
9746;BME280;4912;50.836;12.958;2023-09-12T07:24:42;97526.69;;;27.00;50.37
9746;BME280;4912;50.836;12.958;2023-09-12T07:27:15;97526.81;;;27.19;49.41
9746;BME280;4912;50.836;12.958;2023-09-12T07:29:45;97529.81;;;27.48;48.28
9746;BME280;4912;50.836;12.958;2023-09-12T07:32:18;97529.78;;;27.75;47.10
9746;BME280;4912;50.836;12.958;2023-09-12T07:34:51;97524.38;;;28.05;46.60
9746;BME280;4912;50.836;12.958;2023-09-12T07:37:21;97518.63;;;28.42;45.93
9746;BME280;4912;50.836;12.958;2023-09-12T07:39:51;97522.69;;;28.68;44.98
9746;BME280;4912;50.836;12.958;2023-09-12T07:42:23;97520.88;;;28.72;44.36
9746;BME280;4912;50.836;12.958;2023-09-12T07:44:53;97522.22;;;29.00;44.38
9746;BME280;4912;50.836;12.958;2023-09-12T07:47:23;97526.38;;;29.38;43.67
9746;BME280;4912;50.836;12.958;2023-09-12T07:49:57;97525.16;;;29.81;42.53
9746;BME280;4912;50.836;12.958;2023-09-12T07:52:27;97528.78;;;30.34;41.79
9746;BME280;4912;50.836;12.958;2023-09-12T07:54:59;97520.56;;;30.92;40.66
9746;BME280;4912;50.836;12.958;2023-09-12T07:57:30;97524.13;;;31.58;38.92
9746;BME280;4912;50.836;12.958;2023-09-12T08:00:01;97522.75;;;32.29;37.72
9746;BME280;4912;50.836;12.958;2023-09-12T08:02:37;97522.75;;;32.89;36.42
9746;BME280;4912;50.836;12.958;2023-09-12T08:05:10;97523.16;;;33.35;35.32
9746;BME280;4912;50.836;12.958;2023-09-12T08:07:40;97512.34;;;34.13;34.11
9746;BME280;4912;50.836;12.958;2023-09-12T08:10:10;97513.72;;;34.96;32.61
9746;BME280;4912;50.836;12.958;2023-09-12T08:12:43;97507.31;;;35.72;31.47
9746;BME280;4912;50.836;12.958;2023-09-12T08:15:13;97504.50;;;36.05;31.27
9746;BME280;4912;50.836;12.958;2023-09-12T08:17:44;97514.56;;;36.04;31.30
9746;BME280;4912;50.836;12.958;2023-09-12T08:20:21;97503.69;;;36.52;30.34
9746;BME280;4912;50.836;12.958;2023-09-12T08:22:52;97506.47;;;37.01;30.22
9746;BME280;4912;50.836;12.958;2023-09-12T08:25:22;97510.34;;;37.25;29.83
9746;BME280;4912;50.836;12.958;2023-09-12T08:27:52;97510.41;;;37.45;29.35
9746;BME280;4912;50.836;12.958;2023-09-12T08:30:22;97504.63;;;37.63;29.18
9746;BME280;4912;50.836;12.958;2023-09-12T08:32:53;97517.00;;;37.48;28.51
9746;BME280;4912;50.836;12.958;2023-09-12T08:35:26;97513.28;;;37.45;28.55
9746;BME280;4912;50.836;12.958;2023-09-12T08:37:56;97513.59;;;37.53;28.85
9746;BME280;4912;50.836;12.958;2023-09-12T08:40:26;97506.16;;;37.11;28.87
9746;BME280;4912;50.836;12.958;2023-09-12T08:42:57;97503.41;;;36.79;29.11
9746;BME280;4912;50.836;12.958;2023-09-12T08:45:27;97515.34;;;37.43;29.26
9746;BME280;4912;50.836;12.958;2023-09-12T08:47:59;97509.72;;;37.64;28.51
9746;BME280;4912;50.836;12.958;2023-09-12T08:50:33;97511.22;;;37.48;29.07
9746;BME280;4912;50.836;12.958;2023-09-12T08:53:03;97524.13;;;37.27;29.44
9746;BME280;4912;50.836;12.958;2023-09-12T08:55:35;97514.78;;;37.46;28.12
9746;BME280;4912;50.836;12.958;2023-09-12T08:58:05;97511.44;;;37.71;27.54
9746;BME280;4912;50.836;12.958;2023-09-12T09:00:36;97512.69;;;37.49;28.40
9746;BME280;4912;50.836;12.958;2023-09-12T09:03:09;97506.06;;;37.26;29.65
9746;BME280;4912;50.836;12.958;2023-09-12T09:05:44;97503.56;;;36.83;28.37
9746;BME280;4912;50.836;12.958;2023-09-12T09:08:15;97505.22;;;37.06;27.86
9746;BME280;4912;50.836;12.958;2023-09-12T09:10:56;97500.38;;;38.03;25.34
9746;BME280;4912;50.836;12.958;2023-09-12T09:13:32;97495.16;;;38.39;24.67
9746;BME280;4912;50.836;12.958;2023-09-12T09:16:11;97494.25;;;38.55;24.73
9746;BME280;4912;50.836;12.958;2023-09-12T09:18:50;97497.56;;;38.67;25.43
9746;BME280;4912;50.836;12.958;2023-09-12T09:21:31;97499.03;;;38.89;24.12
9746;BME280;4912;50.836;12.958;2023-09-12T09:24:13;97494.06;;;39.14;24.82
9746;BME280;4912;50.836;12.958;2023-09-12T09:26:51;97493.59;;;39.21;24.99
9746;BME280;4912;50.836;12.958;2023-09-12T09:29:30;97487.34;;;39.07;25.11
9746;BME280;4912;50.836;12.958;2023-09-12T09:32:42;97502.31;;;39.69;25.17
9746;BME280;4912;50.836;12.958;2023-09-12T09:35:28;97497.44;;;39.99;24.98
9746;BME280;4912;50.836;12.958;2023-09-12T09:38:10;97492.88;;;40.18;24.54
9746;BME280;4912;50.836;12.958;2023-09-12T09:41:03;97491.75;;;40.03;25.13
9746;BME280;4912;50.836;12.958;2023-09-12T09:43:45;97497.81;;;39.64;25.24
9746;BME280;4912;50.836;12.958;2023-09-12T09:46:30;97495.72;;;39.43;25.84
9746;BME280;4912;50.836;12.958;2023-09-12T09:49:02;97497.13;;;39.42;25.86
9746;BME280;4912;50.836;12.958;2023-09-12T09:51:34;97496.88;;;39.34;25.68
9746;BME280;4912;50.836;12.958;2023-09-12T09:54:16;97494.38;;;39.24;25.88
9746;BME280;4912;50.836;12.958;2023-09-12T09:56:47;97501.28;;;39.35;25.63
9746;BME280;4912;50.836;12.958;2023-09-12T09:59:23;97493.25;;;39.57;25.54
9746;BME280;4912;50.836;12.958;2023-09-12T10:01:57;97496.38;;;39.65;25.10
9746;BME280;4912;50.836;12.958;2023-09-12T10:04:42;97499.28;;;39.65;24.91
9746;BME280;4912;50.836;12.958;2023-09-12T10:07:26;97492.41;;;39.30;25.40
9746;BME280;4912;50.836;12.958;2023-09-12T10:10:02;97493.75;;;39.49;26.16
9746;BME280;4912;50.836;12.958;2023-09-12T10:12:35;97503.56;;;40.12;26.17
9746;BME280;4912;50.836;12.958;2023-09-12T10:15:07;97501.84;;;40.54;25.33
9746;BME280;4912;50.836;12.958;2023-09-12T10:17:39;97501.97;;;40.86;24.73
9746;BME280;4912;50.836;12.958;2023-09-12T10:20:14;97491.59;;;41.07;24.44
9746;BME280;4912;50.836;12.958;2023-09-12T10:22:47;97497.00;;;41.20;23.96
9746;BME280;4912;50.836;12.958;2023-09-12T10:25:43;97485.28;;;41.46;23.68
9746;BME280;4912;50.836;12.958;2023-09-12T10:28:21;97478.44;;;41.65;24.22
9746;BME280;4912;50.836;12.958;2023-09-12T10:30:54;97481.56;;;41.76;23.88
9746;BME280;4912;50.836;12.958;2023-09-12T10:33:27;97481.38;;;41.67;22.13
9746;BME280;4912;50.836;12.958;2023-09-12T10:36:08;97471.59;;;41.51;22.21
9746;BME280;4912;50.836;12.958;2023-09-12T10:38:40;97479.78;;;41.28;22.12
9746;BME280;4912;50.836;12.958;2023-09-12T10:41:15;97479.47;;;41.46;22.64
9746;BME280;4912;50.836;12.958;2023-09-12T10:43:54;97473.09;;;41.54;22.56
9746;BME280;4912;50.836;12.958;2023-09-12T10:46:31;97473.38;;;42.00;23.39
9746;BME280;4912;50.836;12.958;2023-09-12T10:49:07;97476.88;;;42.30;22.28
9746;BME280;4912;50.836;12.958;2023-09-12T10:51:45;97473.31;;;42.74;22.57
9746;BME280;4912;50.836;12.958;2023-09-12T10:54:22;97472.19;;;42.93;22.78
9746;BME280;4912;50.836;12.958;2023-09-12T10:57:10;97468.94;;;43.17;21.93
9746;BME280;4912;50.836;12.958;2023-09-12T11:02:40;97463.31;;;43.85;21.15
9746;BME280;4912;50.836;12.958;2023-09-12T11:08:10;97458.91;;;44.42;20.02
9746;BME280;4912;50.836;12.958;2023-09-12T11:10:41;97464.03;;;44.44;19.75
9746;BME280;4912;50.836;12.958;2023-09-12T11:13:19;97457.63;;;44.62;19.56
9746;BME280;4912;50.836;12.958;2023-09-12T11:21:50;97449.81;;;44.86;17.96
9746;BME280;4912;50.836;12.958;2023-09-12T11:24:23;97451.56;;;45.22;18.34
9746;BME280;4912;50.836;12.958;2023-09-12T11:26:58;97447.25;;;45.35;18.42
9746;BME280;4912;50.836;12.958;2023-09-12T11:29:38;97444.66;;;45.96;18.02
9746;BME280;4912;50.836;12.958;2023-09-12T11:32:09;97437.47;;;46.50;17.84
9746;BME280;4912;50.836;12.958;2023-09-12T11:34:42;97430.16;;;46.91;18.22
9746;BME280;4912;50.836;12.958;2023-09-12T11:37:20;97423.56;;;46.72;17.76
9746;BME280;4912;50.836;12.958;2023-09-12T11:39:53;97424.34;;;46.95;17.26
9746;BME280;4912;50.836;12.958;2023-09-12T11:42:25;97416.25;;;47.02;16.85
9746;BME280;4912;50.836;12.958;2023-09-12T11:45:01;97425.78;;;47.12;16.77
9746;BME280;4912;50.836;12.958;2023-09-12T11:47:39;97415.53;;;46.89;16.59
9746;BME280;4912;50.836;12.958;2023-09-12T11:50:25;97416.25;;;47.12;17.08
9746;BME280;4912;50.836;12.958;2023-09-12T11:53:02;97409.56;;;47.54;17.13
9746;BME280;4912;50.836;12.958;2023-09-12T11:55:34;97415.41;;;47.54;16.64
9746;BME280;4912;50.836;12.958;2023-09-12T11:58:06;97413.25;;;47.38;16.87
9746;BME280;4912;50.836;12.958;2023-09-12T12:00:45;97405.88;;;47.55;16.46
9746;BME280;4912;50.836;12.958;2023-09-12T12:03:17;97408.03;;;47.61;15.93
9746;BME280;4912;50.836;12.958;2023-09-12T12:05:49;97407.34;;;47.56;16.43
9746;BME280;4912;50.836;12.958;2023-09-12T12:08:19;97403.72;;;47.48;16.58
9746;BME280;4912;50.836;12.958;2023-09-12T12:10:59;97405.22;;;47.33;16.70
9746;BME280;4912;50.836;12.958;2023-09-12T12:13:32;97408.16;;;47.24;15.70
9746;BME280;4912;50.836;12.958;2023-09-12T12:16:18;97402.19;;;47.63;15.87
9746;BME280;4912;50.836;12.958;2023-09-12T12:18:55;97401.38;;;47.79;15.75
9746;BME280;4912;50.836;12.958;2023-09-12T12:21:26;97397.72;;;47.82;15.32
9746;BME280;4912;50.836;12.958;2023-09-12T12:24:07;97394.09;;;47.72;15.69
9746;BME280;4912;50.836;12.958;2023-09-12T12:26:44;97393.34;;;47.73;15.84
9746;BME280;4912;50.836;12.958;2023-09-12T12:29:15;97399.31;;;47.47;15.44
9746;BME280;4912;50.836;12.958;2023-09-12T12:31:51;97400.72;;;47.56;15.37
9746;BME280;4912;50.836;12.958;2023-09-12T12:34:24;97408.09;;;47.45;15.54
9746;BME280;4912;50.836;12.958;2023-09-12T12:37:16;97393.47;;;47.39;15.31
9746;BME280;4912;50.836;12.958;2023-09-12T12:39:53;97398.53;;;47.56;15.23
9746;BME280;4912;50.836;12.958;2023-09-12T12:42:24;97385.94;;;47.86;15.11
9746;BME280;4912;50.836;12.958;2023-09-12T12:45:10;97393.25;;;47.95;15.05
9746;BME280;4912;50.836;12.958;2023-09-12T12:47:44;97394.00;;;47.90;14.87
9746;BME280;4912;50.836;12.958;2023-09-12T12:50:18;97387.91;;;48.30;15.09
9746;BME280;4912;50.836;12.958;2023-09-12T12:52:53;97391.38;;;48.55;14.99
9746;BME280;4912;50.836;12.958;2023-09-12T12:55:38;97389.00;;;48.78;15.09
9746;BME280;4912;50.836;12.958;2023-09-12T12:58:09;97391.47;;;48.45;14.67
9746;BME280;4912;50.836;12.958;2023-09-12T13:00:43;97384.91;;;48.40;15.00
9746;BME280;4912;50.836;12.958;2023-09-12T13:03:16;97381.19;;;48.46;15.37
9746;BME280;4912;50.836;12.958;2023-09-12T13:05:47;97386.00;;;47.74;14.89
9746;BME280;4912;50.836;12.958;2023-09-12T13:08:17;97384.75;;;46.96;15.28
9746;BME280;4912;50.836;12.958;2023-09-12T13:10:51;97382.50;;;47.19;15.27
9746;BME280;4912;50.836;12.958;2023-09-12T13:13:22;97382.59;;;46.74;15.12
9746;BME280;4912;50.836;12.958;2023-09-12T13:16:01;97374.53;;;46.69;16.09
9746;BME280;4912;50.836;12.958;2023-09-12T13:18:47;97372.34;;;46.71;15.63
9746;BME280;4912;50.836;12.958;2023-09-12T13:21:18;97380.38;;;46.99;15.68
9746;BME280;4912;50.836;12.958;2023-09-12T13:23:49;97372.31;;;47.00;15.04
9746;BME280;4912;50.836;12.958;2023-09-12T13:26:20;97373.75;;;47.15;15.04
9746;BME280;4912;50.836;12.958;2023-09-12T13:28:54;97365.56;;;47.54;15.38
9746;BME280;4912;50.836;12.958;2023-09-12T13:31:27;97365.41;;;47.84;14.53
9746;BME280;4912;50.836;12.958;2023-09-12T13:34:07;97359.47;;;48.02;15.00
9746;BME280;4912;50.836;12.958;2023-09-12T13:36:40;97363.22;;;47.87;15.50
9746;BME280;4912;50.836;12.958;2023-09-12T13:39:31;97348.66;;;47.67;15.46
9746;BME280;4912;50.836;12.958;2023-09-12T13:42:01;97347.19;;;47.61;15.46
9746;BME280;4912;50.836;12.958;2023-09-12T13:44:37;97344.31;;;47.53;15.59
9746;BME280;4912;50.836;12.958;2023-09-12T13:47:11;97346.59;;;47.29;16.03
9746;BME280;4912;50.836;12.958;2023-09-12T13:49:51;97345.78;;;47.48;15.93
9746;BME280;4912;50.836;12.958;2023-09-12T13:52:21;97340.66;;;47.49;15.55
9746;BME280;4912;50.836;12.958;2023-09-12T13:54:56;97348.03;;;47.42;15.48
9746;BME280;4912;50.836;12.958;2023-09-12T13:57:30;97341.53;;;47.07;15.98
9746;BME280;4912;50.836;12.958;2023-09-12T14:00:15;97345.94;;;46.96;16.01